KDUC/DUC METAR and TAF weather

Enter ICAO airport designator
Station Type Date Time Source
KDUC METAR 2023/01/30 10:55 UTC NOAA

KDUC 301055Z AUTO 36018G24KT 10SM OVC021 M07/M12 A3034 RMK AO2 T10711120


Station Type Date Time Source
KDUC Decoded METAR 2023/01/30 10:55 UTC NOAA

Duncan, Halliburton Field Airport, OK, United States (KDUC) 34-28-15N 097-57-36W
Jan 30, 2023 - 05:55 AM EST / 2023.01.30 1055 UTC
Wind: from the N (360 degrees) at 21 MPH (18 KT) gusting to 28 MPH (24 KT):0
Visibility: 10 mile(s):0
Sky conditions: overcast
Temperature: 19.2 F (-7.1 C)
Windchill: 3 F (-16 C):1
Dew Point: 10.4 F (-12.0 C)
Relative Humidity: 67%
Pressure (altimeter): 30.34 in. Hg (1027 hPa)
ob: KDUC 301055Z AUTO 36018G24KT 10SM OVC021 M07/M12 A3034 RMK AO2 T10711120
cycle: 11

Station Type Date Time Source
KDUC TAF UTC NOAA

Error!

Example: see airport list